sensor_id;sensor_type;location;lat;lon;timestamp;temperature;humidity
34406;DHT22;20658;45.630;8.886;2023-11-18T00:00:46;10.20;48.70
34406;DHT22;20658;45.630;8.886;2023-11-18T00:03:20;10.00;48.80
34406;DHT22;20658;45.630;8.886;2023-11-18T00:05:55;10.00;49.20
34406;DHT22;20658;45.630;8.886;2023-11-18T00:08:31;9.90;49.20
34406;DHT22;20658;45.630;8.886;2023-11-18T00:11:04;9.80;49.50
34406;DHT22;20658;45.630;8.886;2023-11-18T00:13:38;9.70;49.70
34406;DHT22;20658;45.630;8.886;2023-11-18T00:16:13;9.70;50.20
34406;DHT22;20658;45.630;8.886;2023-11-18T00:18:48;9.60;50.70
34406;DHT22;20658;45.630;8.886;2023-11-18T00:21:21;9.50;51.50
34406;DHT22;20658;45.630;8.886;2023-11-18T00:23:56;9.40;51.80
34406;DHT22;20658;45.630;8.886;2023-11-18T00:26:29;9.30;52.40
34406;DHT22;20658;45.630;8.886;2023-11-18T00:29:03;9.20;51.80
34406;DHT22;20658;45.630;8.886;2023-11-18T00:31:37;9.20;52.20
34406;DHT22;20658;45.630;8.886;2023-11-18T00:34:10;9.10;52.70
34406;DHT22;20658;45.630;8.886;2023-11-18T00:36:43;9.10;53.30
34406;DHT22;20658;45.630;8.886;2023-11-18T00:39:18;9.00;53.70
34406;DHT22;20658;45.630;8.886;2023-11-18T00:41:52;8.90;54.10
34406;DHT22;20658;45.630;8.886;2023-11-18T00:44:20;8.90;54.30
34406;DHT22;20658;45.630;8.886;2023-11-18T00:46:54;8.80;54.30
34406;DHT22;20658;45.630;8.886;2023-11-18T00:49:29;8.80;54.30
34406;DHT22;20658;45.630;8.886;2023-11-18T00:52:03;8.80;54.30
34406;DHT22;20658;45.630;8.886;2023-11-18T00:54:38;8.70;54.30
34406;DHT22;20658;45.630;8.886;2023-11-18T00:57:06;8.80;54.30
34406;DHT22;20658;45.630;8.886;2023-11-18T00:59:35;8.80;54.20
34406;DHT22;20658;45.630;8.886;2023-11-18T01:02:08;8.70;53.70
34406;DHT22;20658;45.630;8.886;2023-11-18T01:04:42;8.70;53.70
34406;DHT22;20658;45.630;8.886;2023-11-18T01:07:16;8.70;53.90
34406;DHT22;20658;45.630;8.886;2023-11-18T01:09:51;8.70;53.60
34406;DHT22;20658;45.630;8.886;2023-11-18T01:12:24;8.70;53.70
34406;DHT22;20658;45.630;8.886;2023-11-18T01:14:53;8.70;53.50
34406;DHT22;20658;45.630;8.886;2023-11-18T01:17:26;8.70;53.40
34406;DHT22;20658;45.630;8.886;2023-11-18T01:20:00;8.90;53.40
34406;DHT22;20658;45.630;8.886;2023-11-18T01:22:40;9.00;53.30
34406;DHT22;20658;45.630;8.886;2023-11-18T01:25:16;8.80;52.50
34406;DHT22;20658;45.630;8.886;2023-11-18T01:27:50;8.90;51.90
34406;DHT22;20658;45.630;8.886;2023-11-18T01:30:24;9.60;52.40
34406;DHT22;20658;45.630;8.886;2023-11-18T01:32:59;9.00;52.00
34406;DHT22;20658;45.630;8.886;2023-11-18T01:35:32;9.30;52.10
34406;DHT22;20658;45.630;8.886;2023-11-18T01:38:06;9.00;51.90
34406;DHT22;20658;45.630;8.886;2023-11-18T01:40:40;9.00;51.70
34406;DHT22;20658;45.630;8.886;2023-11-18T01:43:14;9.00;51.50
34406;DHT22;20658;45.630;8.886;2023-11-18T01:45:48;9.00;51.40
34406;DHT22;20658;45.630;8.886;2023-11-18T01:48:21;9.00;51.20
34406;DHT22;20658;45.630;8.886;2023-11-18T01:50:58;9.00;51.20
34406;DHT22;20658;45.630;8.886;2023-11-18T01:53:32;9.00;51.40
34406;DHT22;20658;45.630;8.886;2023-11-18T01:56:10;8.90;51.60
34406;DHT22;20658;45.630;8.886;2023-11-18T01:58:44;8.90;51.50
34406;DHT22;20658;45.630;8.886;2023-11-18T02:01:18;8.80;51.60
34406;DHT22;20658;45.630;8.886;2023-11-18T02:03:52;8.80;51.50
34406;DHT22;20658;45.630;8.886;2023-11-18T02:06:25;8.80;51.10
34406;DHT22;20658;45.630;8.886;2023-11-18T02:08:58;8.80;50.90
34406;DHT22;20658;45.630;8.886;2023-11-18T02:11:37;8.80;50.90
34406;DHT22;20658;45.630;8.886;2023-11-18T02:14:14;8.70;50.80
34406;DHT22;20658;45.630;8.886;2023-11-18T02:16:50;9.10;50.80
34406;DHT22;20658;45.630;8.886;2023-11-18T02:19:26;9.20;50.20
34406;DHT22;20658;45.630;8.886;2023-11-18T02:22:02;8.90;50.00
34406;DHT22;20658;45.630;8.886;2023-11-18T02:24:38;8.90;50.00
34406;DHT22;20658;45.630;8.886;2023-11-18T02:27:14;8.90;49.90
34406;DHT22;20658;45.630;8.886;2023-11-18T02:29:48;8.90;49.60
34406;DHT22;20658;45.630;8.886;2023-11-18T02:32:27;8.90;49.80
34406;DHT22;20658;45.630;8.886;2023-11-18T02:35:08;8.90;49.80
34406;DHT22;20658;45.630;8.886;2023-11-18T02:37:46;9.00;49.70
34406;DHT22;20658;45.630;8.886;2023-11-18T02:40:32;8.90;49.80
34406;DHT22;20658;45.630;8.886;2023-11-18T02:43:08;8.90;50.00
34406;DHT22;20658;45.630;8.886;2023-11-18T02:45:42;8.90;50.00
34406;DHT22;20658;45.630;8.886;2023-11-18T02:48:18;8.80;50.00
34406;DHT22;20658;45.630;8.886;2023-11-18T02:50:51;8.80;50.30
34406;DHT22;20658;45.630;8.886;2023-11-18T02:53:25;8.80;50.40
34406;DHT22;20658;45.630;8.886;2023-11-18T02:55:58;8.80;50.60
34406;DHT22;20658;45.630;8.886;2023-11-18T02:58:35;8.70;50.70
34406;DHT22;20658;45.630;8.886;2023-11-18T03:01:09;8.70;50.50
34406;DHT22;20658;45.630;8.886;2023-11-18T03:03:42;8.70;50.30
34406;DHT22;20658;45.630;8.886;2023-11-18T03:06:16;8.70;50.40
34406;DHT22;20658;45.630;8.886;2023-11-18T03:08:52;8.70;50.30
34406;DHT22;20658;45.630;8.886;2023-11-18T03:11:26;8.70;50.20
34406;DHT22;20658;45.630;8.886;2023-11-18T03:14:03;8.70;50.30
34406;DHT22;20658;45.630;8.886;2023-11-18T03:16:41;8.70;50.20
34406;DHT22;20658;45.630;8.886;2023-11-18T03:19:15;8.70;50.20
34406;DHT22;20658;45.630;8.886;2023-11-18T03:21:50;8.70;49.90
34406;DHT22;20658;45.630;8.886;2023-11-18T03:24:25;8.60;49.90
34406;DHT22;20658;45.630;8.886;2023-11-18T03:26:58;8.70;49.60
34406;DHT22;20658;45.630;8.886;2023-11-18T03:29:32;8.60;49.90
34406;DHT22;20658;45.630;8.886;2023-11-18T03:32:06;8.60;49.60
34406;DHT22;20658;45.630;8.886;2023-11-18T03:34:39;8.60;49.10
34406;DHT22;20658;45.630;8.886;2023-11-18T03:37:13;8.70;49.00
34406;DHT22;20658;45.630;8.886;2023-11-18T03:39:46;8.70;49.00
34406;DHT22;20658;45.630;8.886;2023-11-18T03:42:19;8.70;49.10
34406;DHT22;20658;45.630;8.886;2023-11-18T03:44:54;8.60;49.30
34406;DHT22;20658;45.630;8.886;2023-11-18T03:47:27;8.50;49.80
34406;DHT22;20658;45.630;8.886;2023-11-18T03:50:02;8.50;50.00
34406;DHT22;20658;45.630;8.886;2023-11-18T03:52:36;8.30;50.30
34406;DHT22;20658;45.630;8.886;2023-11-18T03:55:10;8.30;50.70
34406;DHT22;20658;45.630;8.886;2023-11-18T03:57:43;8.30;50.70
34406;DHT22;20658;45.630;8.886;2023-11-18T04:00:20;8.20;50.80
34406;DHT22;20658;45.630;8.886;2023-11-18T04:02:53;8.20;50.80
34406;DHT22;20658;45.630;8.886;2023-11-18T04:05:26;8.20;51.00
34406;DHT22;20658;45.630;8.886;2023-11-18T04:08:00;8.10;51.40
34406;DHT22;20658;45.630;8.886;2023-11-18T04:10:29;8.00;51.30
34406;DHT22;20658;45.630;8.886;2023-11-18T04:13:02;8.00;51.20
34406;DHT22;20658;45.630;8.886;2023-11-18T04:15:37;8.00;51.30
34406;DHT22;20658;45.630;8.886;2023-11-18T04:18:10;7.90;51.40
34406;DHT22;20658;45.630;8.886;2023-11-18T04:20:43;7.90;51.30
34406;DHT22;20658;45.630;8.886;2023-11-18T04:23:17;7.90;51.40
34406;DHT22;20658;45.630;8.886;2023-11-18T04:25:50;7.90;51.50
34406;DHT22;20658;45.630;8.886;2023-11-18T04:28:24;7.90;51.40
34406;DHT22;20658;45.630;8.886;2023-11-18T04:31:00;7.80;51.80
34406;DHT22;20658;45.630;8.886;2023-11-18T04:33:34;7.70;51.20
34406;DHT22;20658;45.630;8.886;2023-11-18T04:36:09;7.60;51.30
34406;DHT22;20658;45.630;8.886;2023-11-18T04:38:43;7.50;52.00
34406;DHT22;20658;45.630;8.886;2023-11-18T04:41:16;7.40;52.30
34406;DHT22;20658;45.630;8.886;2023-11-18T04:43:50;7.40;51.70
34406;DHT22;20658;45.630;8.886;2023-11-18T04:46:25;7.70;51.60
34406;DHT22;20658;45.630;8.886;2023-11-18T04:48:58;7.50;51.30
34406;DHT22;20658;45.630;8.886;2023-11-18T04:51:33;7.40;51.10
34406;DHT22;20658;45.630;8.886;2023-11-18T04:54:02;7.50;50.80
34406;DHT22;20658;45.630;8.886;2023-11-18T04:56:31;7.50;51.70
34406;DHT22;20658;45.630;8.886;2023-11-18T04:59:04;7.50;50.70
34406;DHT22;20658;45.630;8.886;2023-11-18T05:01:39;7.50;51.60
34406;DHT22;20658;45.630;8.886;2023-11-18T05:04:12;7.40;51.60
34406;DHT22;20658;45.630;8.886;2023-11-18T05:06:46;7.30;50.60
34406;DHT22;20658;45.630;8.886;2023-11-18T05:09:19;7.30;50.90
34406;DHT22;20658;45.630;8.886;2023-11-18T05:11:52;7.30;51.30
34406;DHT22;20658;45.630;8.886;2023-11-18T05:14:26;7.30;51.30
34406;DHT22;20658;45.630;8.886;2023-11-18T05:17:02;7.30;51.30
34406;DHT22;20658;45.630;8.886;2023-11-18T05:19:36;7.30;51.30
34406;DHT22;20658;45.630;8.886;2023-11-18T05:22:09;7.40;51.20
34406;DHT22;20658;45.630;8.886;2023-11-18T05:24:43;7.40;51.40
34406;DHT22;20658;45.630;8.886;2023-11-18T05:27:17;7.30;52.00
34406;DHT22;20658;45.630;8.886;2023-11-18T05:29:50;7.20;52.40
34406;DHT22;20658;45.630;8.886;2023-11-18T05:32:28;7.20;52.10
34406;DHT22;20658;45.630;8.886;2023-11-18T05:35:03;7.20;51.90
34406;DHT22;20658;45.630;8.886;2023-11-18T05:37:38;7.20;52.40
34406;DHT22;20658;45.630;8.886;2023-11-18T05:40:12;7.10;52.50
34406;DHT22;20658;45.630;8.886;2023-11-18T05:42:47;7.00;52.80
34406;DHT22;20658;45.630;8.886;2023-11-18T05:45:24;7.00;53.20
34406;DHT22;20658;45.630;8.886;2023-11-18T05:48:05;6.90;53.00
34406;DHT22;20658;45.630;8.886;2023-11-18T05:50:38;7.00;52.60
34406;DHT22;20658;45.630;8.886;2023-11-18T05:53:11;7.00;52.40
34406;DHT22;20658;45.630;8.886;2023-11-18T05:55:45;7.00;52.30
34406;DHT22;20658;45.630;8.886;2023-11-18T05:58:18;7.00;52.10
34406;DHT22;20658;45.630;8.886;2023-11-18T06:00:51;7.10;52.30
34406;DHT22;20658;45.630;8.886;2023-11-18T06:03:26;7.00;52.60
34406;DHT22;20658;45.630;8.886;2023-11-18T06:06:00;7.30;53.40
34406;DHT22;20658;45.630;8.886;2023-11-18T06:08:33;6.90;53.40
34406;DHT22;20658;45.630;8.886;2023-11-18T06:11:07;6.90;53.40
34406;DHT22;20658;45.630;8.886;2023-11-18T06:13:46;6.90;53.40
34406;DHT22;20658;45.630;8.886;2023-11-18T06:16:22;6.90;53.40
34406;DHT22;20658;45.630;8.886;2023-11-18T06:18:58;7.00;52.80
34406;DHT22;20658;45.630;8.886;2023-11-18T06:21:32;6.90;52.90
34406;DHT22;20658;45.630;8.886;2023-11-18T06:24:06;7.00;52.80
34406;DHT22;20658;45.630;8.886;2023-11-18T06:26:43;7.00;53.00
34406;DHT22;20658;45.630;8.886;2023-11-18T06:29:16;7.00;52.80
34406;DHT22;20658;45.630;8.886;2023-11-18T06:31:45;7.00;53.00
34406;DHT22;20658;45.630;8.886;2023-11-18T06:34:20;6.90;53.10
34406;DHT22;20658;45.630;8.886;2023-11-18T06:36:54;6.90;53.40
34406;DHT22;20658;45.630;8.886;2023-11-18T06:39:28;7.00;53.40
34406;DHT22;20658;45.630;8.886;2023-11-18T06:42:02;7.00;53.40
34406;DHT22;20658;45.630;8.886;2023-11-18T06:44:38;7.00;53.40
34406;DHT22;20658;45.630;8.886;2023-11-18T06:47:11;7.00;53.40
34406;DHT22;20658;45.630;8.886;2023-11-18T06:49:46;7.10;53.50
34406;DHT22;20658;45.630;8.886;2023-11-18T06:52:20;7.00;53.40
34406;DHT22;20658;45.630;8.886;2023-11-18T06:54:53;7.10;53.20
34406;DHT22;20658;45.630;8.886;2023-11-18T06:57:27;7.00;53.40
34406;DHT22;20658;45.630;8.886;2023-11-18T07:00:00;7.00;53.40
34406;DHT22;20658;45.630;8.886;2023-11-18T07:02:39;7.10;53.50
34406;DHT22;20658;45.630;8.886;2023-11-18T07:05:14;7.10;53.70
34406;DHT22;20658;45.630;8.886;2023-11-18T07:07:47;7.20;53.50
34406;DHT22;20658;45.630;8.886;2023-11-18T07:10:21;7.30;53.20
34406;DHT22;20658;45.630;8.886;2023-11-18T07:12:54;7.30;53.10
34406;DHT22;20658;45.630;8.886;2023-11-18T07:15:28;7.40;52.70
34406;DHT22;20658;45.630;8.886;2023-11-18T07:18:01;7.40;52.50
34406;DHT22;20658;45.630;8.886;2023-11-18T07:20:36;7.50;52.70
34406;DHT22;20658;45.630;8.886;2023-11-18T07:23:04;7.50;52.40
34406;DHT22;20658;45.630;8.886;2023-11-18T07:25:40;7.60;52.10
34406;DHT22;20658;45.630;8.886;2023-11-18T07:28:15;7.70;52.20
34406;DHT22;20658;45.630;8.886;2023-11-18T07:30:44;7.70;52.20
34406;DHT22;20658;45.630;8.886;2023-11-18T07:33:20;7.80;52.00
34406;DHT22;20658;45.630;8.886;2023-11-18T07:35:54;7.90;51.70
34406;DHT22;20658;45.630;8.886;2023-11-18T07:38:28;8.10;51.10
34406;DHT22;20658;45.630;8.886;2023-11-18T07:41:03;8.20;51.10
34406;DHT22;20658;45.630;8.886;2023-11-18T07:43:40;8.30;51.30
34406;DHT22;20658;45.630;8.886;2023-11-18T07:46:08;8.30;51.50
34406;DHT22;20658;45.630;8.886;2023-11-18T07:48:42;8.40;51.40
34406;DHT22;20658;45.630;8.886;2023-11-18T07:51:17;8.80;52.30
34406;DHT22;20658;45.630;8.886;2023-11-18T07:53:51;8.50;52.20
34406;DHT22;20658;45.630;8.886;2023-11-18T07:56:24;8.60;52.10
34406;DHT22;20658;45.630;8.886;2023-11-18T07:58:59;8.70;51.50
34406;DHT22;20658;45.630;8.886;2023-11-18T08:01:33;9.40;51.90
34406;DHT22;20658;45.630;8.886;2023-11-18T08:04:06;8.90;51.70
34406;DHT22;20658;45.630;8.886;2023-11-18T08:06:41;9.10;51.20
34406;DHT22;20658;45.630;8.886;2023-11-18T08:09:15;9.20;51.10
34406;DHT22;20658;45.630;8.886;2023-11-18T08:11:54;9.60;51.10
34406;DHT22;20658;45.630;8.886;2023-11-18T08:14:28;9.40;50.40
34406;DHT22;20658;45.630;8.886;2023-11-18T08:17:01;9.60;50.50
34406;DHT22;20658;45.630;8.886;2023-11-18T08:19:36;9.70;50.00
34406;DHT22;20658;45.630;8.886;2023-11-18T08:22:08;9.80;49.40
34406;DHT22;20658;45.630;8.886;2023-11-18T08:24:42;10.00;48.80
34406;DHT22;20658;45.630;8.886;2023-11-18T08:27:16;10.10;49.10
34406;DHT22;20658;45.630;8.886;2023-11-18T08:29:49;10.20;48.50
34406;DHT22;20658;45.630;8.886;2023-11-18T08:32:23;10.30;48.30
34406;DHT22;20658;45.630;8.886;2023-11-18T08:34:56;10.40;48.30
34406;DHT22;20658;45.630;8.886;2023-11-18T08:37:31;10.50;48.50
34406;DHT22;20658;45.630;8.886;2023-11-18T08:40:07;10.70;49.00
34406;DHT22;20658;45.630;8.886;2023-11-18T08:42:47;10.80;48.90
34406;DHT22;20658;45.630;8.886;2023-11-18T08:45:23;11.10;48.50
34406;DHT22;20658;45.630;8.886;2023-11-18T08:48:00;10.90;48.50
34406;DHT22;20658;45.630;8.886;2023-11-18T08:50:39;11.00;47.40
34406;DHT22;20658;45.630;8.886;2023-11-18T08:53:14;11.20;47.80
34406;DHT22;20658;45.630;8.886;2023-11-18T08:55:49;11.30;47.00
34406;DHT22;20658;45.630;8.886;2023-11-18T08:58:20;11.40;45.80
34406;DHT22;20658;45.630;8.886;2023-11-18T09:00:59;11.50;45.90
34406;DHT22;20658;45.630;8.886;2023-11-18T09:03:40;11.60;45.30
34406;DHT22;20658;45.630;8.886;2023-11-18T09:06:20;11.80;45.50
34406;DHT22;20658;45.630;8.886;2023-11-18T09:08:58;11.90;45.40
34406;DHT22;20658;45.630;8.886;2023-11-18T09:11:37;12.00;44.30
34406;DHT22;20658;45.630;8.886;2023-11-18T09:14:13;12.10;44.20
34406;DHT22;20658;45.630;8.886;2023-11-18T09:16:46;12.30;44.20
34406;DHT22;20658;45.630;8.886;2023-11-18T09:19:21;12.40;43.40
34406;DHT22;20658;45.630;8.886;2023-11-18T09:21:54;12.40;43.00
34406;DHT22;20658;45.630;8.886;2023-11-18T09:24:29;12.50;42.60
34406;DHT22;20658;45.630;8.886;2023-11-18T09:27:02;12.60;42.80
34406;DHT22;20658;45.630;8.886;2023-11-18T09:29:38;12.70;42.40
34406;DHT22;20658;45.630;8.886;2023-11-18T09:32:11;12.80;41.90
34406;DHT22;20658;45.630;8.886;2023-11-18T09:34:44;12.80;41.40
34406;DHT22;20658;45.630;8.886;2023-11-18T09:37:19;13.20;42.00
34406;DHT22;20658;45.630;8.886;2023-11-18T09:39:56;13.00;41.20
34406;DHT22;20658;45.630;8.886;2023-11-18T09:42:25;13.40;41.30
34406;DHT22;20658;45.630;8.886;2023-11-18T09:44:59;13.00;41.20
34406;DHT22;20658;45.630;8.886;2023-11-18T09:47:38;13.30;41.40
34406;DHT22;20658;45.630;8.886;2023-11-18T09:50:22;13.40;41.00
34406;DHT22;20658;45.630;8.886;2023-11-18T09:53:01;13.50;41.40
34406;DHT22;20658;45.630;8.886;2023-11-18T09:55:50;13.60;40.10
34406;DHT22;20658;45.630;8.886;2023-11-18T09:58:39;13.60;40.10
34406;DHT22;20658;45.630;8.886;2023-11-18T10:01:16;13.70;39.40
34406;DHT22;20658;45.630;8.886;2023-11-18T10:03:52;14.10;38.90
34406;DHT22;20658;45.630;8.886;2023-11-18T10:06:26;13.90;38.40
34406;DHT22;20658;45.630;8.886;2023-11-18T10:09:00;14.10;38.30
34406;DHT22;20658;45.630;8.886;2023-11-18T10:11:48;14.10;37.80
34406;DHT22;20658;45.630;8.886;2023-11-18T10:14:21;14.20;38.40
34406;DHT22;20658;45.630;8.886;2023-11-18T10:16:56;14.20;38.90
34406;DHT22;20658;45.630;8.886;2023-11-18T10:19:49;14.30;39.20
34406;DHT22;20658;45.630;8.886;2023-11-18T10:22:23;14.40;39.10
34406;DHT22;20658;45.630;8.886;2023-11-18T10:24:59;14.40;38.30
34406;DHT22;20658;45.630;8.886;2023-11-18T10:27:34;14.70;38.90
34406;DHT22;20658;45.630;8.886;2023-11-18T10:30:08;14.40;38.40
34406;DHT22;20658;45.630;8.886;2023-11-18T10:32:57;14.50;38.40
34406;DHT22;20658;45.630;8.886;2023-11-18T10:35:32;14.50;39.00
34406;DHT22;20658;45.630;8.886;2023-11-18T10:38:06;14.50;38.80
34406;DHT22;20658;45.630;8.886;2023-11-18T10:40:41;14.60;39.30
34406;DHT22;20658;45.630;8.886;2023-11-18T10:43:17;14.60;38.10
34406;DHT22;20658;45.630;8.886;2023-11-18T10:45:45;14.60;37.50
34406;DHT22;20658;45.630;8.886;2023-11-18T10:48:20;14.70;37.50
34406;DHT22;20658;45.630;8.886;2023-11-18T10:50:54;14.60;37.60
34406;DHT22;20658;45.630;8.886;2023-11-18T10:53:29;14.90;38.20
34406;DHT22;20658;45.630;8.886;2023-11-18T10:56:05;15.00;38.40
34406;DHT22;20658;45.630;8.886;2023-11-18T10:58:40;15.10;38.60
34406;DHT22;20658;45.630;8.886;2023-11-18T11:01:13;15.20;38.30
34406;DHT22;20658;45.630;8.886;2023-11-18T11:03:52;15.20;37.70
34406;DHT22;20658;45.630;8.886;2023-11-18T11:06:28;15.00;37.10
34406;DHT22;20658;45.630;8.886;2023-11-18T11:09:02;15.10;37.00
34406;DHT22;20658;45.630;8.886;2023-11-18T11:11:46;15.30;37.20
34406;DHT22;20658;45.630;8.886;2023-11-18T11:14:23;15.30;36.80
34406;DHT22;20658;45.630;8.886;2023-11-18T11:17:06;15.40;36.80
34406;DHT22;20658;45.630;8.886;2023-11-18T11:19:50;15.50;36.90
34406;DHT22;20658;45.630;8.886;2023-11-18T11:22:33;15.40;36.90
34406;DHT22;20658;45.630;8.886;2023-11-18T11:25:16;15.40;37.30
34406;DHT22;20658;45.630;8.886;2023-11-18T11:27:59;15.50;37.90
34406;DHT22;20658;45.630;8.886;2023-11-18T11:30:50;15.50;37.30
34406;DHT22;20658;45.630;8.886;2023-11-18T11:33:33;15.40;37.50
34406;DHT22;20658;45.630;8.886;2023-11-18T11:36:13;15.50;37.70
34406;DHT22;20658;45.630;8.886;2023-11-18T11:38:54;15.40;37.00
34406;DHT22;20658;45.630;8.886;2023-11-18T11:41:23;15.40;36.90
34406;DHT22;20658;45.630;8.886;2023-11-18T11:44:01;15.30;37.20
34406;DHT22;20658;45.630;8.886;2023-11-18T11:46:40;15.40;37.40
34406;DHT22;20658;45.630;8.886;2023-11-18T11:49:14;15.60;37.60
34406;DHT22;20658;45.630;8.886;2023-11-18T11:51:56;15.90;37.10
34406;DHT22;20658;45.630;8.886;2023-11-18T11:54:35;16.00;36.70
34406;DHT22;20658;45.630;8.886;2023-11-18T11:57:13;15.90;36.30
34406;DHT22;20658;45.630;8.886;2023-11-18T11:59:56;15.80;36.80
34406;DHT22;20658;45.630;8.886;2023-11-18T12:02:33;15.80;37.00
34406;DHT22;20658;45.630;8.886;2023-11-18T12:05:07;15.60;36.80
34406;DHT22;20658;45.630;8.886;2023-11-18T12:07:48;15.60;36.40
34406;DHT22;20658;45.630;8.886;2023-11-18T12:10:26;15.90;37.10
34406;DHT22;20658;45.630;8.886;2023-11-18T12:13:09;15.80;37.50
34406;DHT22;20658;45.630;8.886;2023-11-18T12:15:48;15.90;38.20
34406;DHT22;20658;45.630;8.886;2023-11-18T12:18:27;15.90;38.70
34406;DHT22;20658;45.630;8.886;2023-11-18T12:21:04;16.00;39.30
34406;DHT22;20658;45.630;8.886;2023-11-18T12:24:15;16.10;38.50
34406;DHT22;20658;45.630;8.886;2023-11-18T12:26:51;16.10;39.00
34406;DHT22;20658;45.630;8.886;2023-11-18T12:29:32;16.10;39.20
34406;DHT22;20658;45.630;8.886;2023-11-18T12:32:06;16.30;39.40
34406;DHT22;20658;45.630;8.886;2023-11-18T12:34:52;15.90;39.00
34406;DHT22;20658;45.630;8.886;2023-11-18T12:37:52;15.90;38.80
34406;DHT22;20658;45.630;8.886;2023-11-18T12:40:52;15.70;37.60
34406;DHT22;20658;45.630;8.886;2023-11-18T12:43:46;16.00;38.80
34406;DHT22;20658;45.630;8.886;2023-11-18T12:46:48;15.90;38.10
34406;DHT22;20658;45.630;8.886;2023-11-18T12:49:22;15.90;37.10
34406;DHT22;20658;45.630;8.886;2023-11-18T12:51:58;15.70;37.40
34406;DHT22;20658;45.630;8.886;2023-11-18T12:54:32;15.80;37.60
34406;DHT22;20658;45.630;8.886;2023-11-18T12:57:09;15.70;37.70
34406;DHT22;20658;45.630;8.886;2023-11-18T12:59:45;15.70;38.00
34406;DHT22;20658;45.630;8.886;2023-11-18T13:02:19;15.70;38.40
34406;DHT22;20658;45.630;8.886;2023-11-18T13:04:54;15.70;38.20
34406;DHT22;20658;45.630;8.886;2023-11-18T13:07:24;15.70;38.30
34406;DHT22;20658;45.630;8.886;2023-11-18T13:09:58;15.60;38.50
34406;DHT22;20658;45.630;8.886;2023-11-18T13:12:35;15.50;38.40
34406;DHT22;20658;45.630;8.886;2023-11-18T13:15:09;15.60;38.20
34406;DHT22;20658;45.630;8.886;2023-11-18T13:17:57;15.60;38.30
34406;DHT22;20658;45.630;8.886;2023-11-18T13:20:26;15.60;37.80
34406;DHT22;20658;45.630;8.886;2023-11-18T13:23:02;15.60;38.00
34406;DHT22;20658;45.630;8.886;2023-11-18T13:25:41;15.70;38.00
34406;DHT22;20658;45.630;8.886;2023-11-18T13:28:14;15.60;38.00
34406;DHT22;20658;45.630;8.886;2023-11-18T13:30:50;15.60;38.10
34406;DHT22;20658;45.630;8.886;2023-11-18T13:33:23;15.60;37.90
34406;DHT22;20658;45.630;8.886;2023-11-18T13:35:52;15.60;38.00
34406;DHT22;20658;45.630;8.886;2023-11-18T13:38:23;15.50;37.70
34406;DHT22;20658;45.630;8.886;2023-11-18T13:40:55;15.50;38.20
34406;DHT22;20658;45.630;8.886;2023-11-18T13:43:23;15.60;38.20
34406;DHT22;20658;45.630;8.886;2023-11-18T13:45:58;15.50;38.40
34406;DHT22;20658;45.630;8.886;2023-11-18T13:48:32;15.60;38.70
34406;DHT22;20658;45.630;8.886;2023-11-18T13:51:06;15.50;38.50
34406;DHT22;20658;45.630;8.886;2023-11-18T13:53:37;15.50;38.70
34406;DHT22;20658;45.630;8.886;2023-11-18T13:56:10;15.50;38.50
34406;DHT22;20658;45.630;8.886;2023-11-18T13:58:39;15.40;37.70
34406;DHT22;20658;45.630;8.886;2023-11-18T14:01:12;15.40;37.60
34406;DHT22;20658;45.630;8.886;2023-11-18T14:03:41;15.30;38.40
34406;DHT22;20658;45.630;8.886;2023-11-18T14:06:10;15.40;38.90
34406;DHT22;20658;45.630;8.886;2023-11-18T14:08:40;15.40;38.90
34406;DHT22;20658;45.630;8.886;2023-11-18T14:11:14;15.30;38.20
34406;DHT22;20658;45.630;8.886;2023-11-18T14:13:47;15.20;38.60
34406;DHT22;20658;45.630;8.886;2023-11-18T14:16:21;15.10;38.20
34406;DHT22;20658;45.630;8.886;2023-11-18T14:18:50;15.00;38.20
34406;DHT22;20658;45.630;8.886;2023-11-18T14:21:23;15.00;38.20
34406;DHT22;20658;45.630;8.886;2023-11-18T14:23:58;15.00;39.50
34406;DHT22;20658;45.630;8.886;2023-11-18T14:26:34;15.00;38.70
34406;DHT22;20658;45.630;8.886;2023-11-18T14:29:08;15.00;38.40
34406;DHT22;20658;45.630;8.886;2023-11-18T14:31:44;14.90;38.60
34406;DHT22;20658;45.630;8.886;2023-11-18T14:34:18;14.90;38.90
34406;DHT22;20658;45.630;8.886;2023-11-18T14:36:51;14.80;39.40
34406;DHT22;20658;45.630;8.886;2023-11-18T14:39:26;14.70;39.90
34406;DHT22;20658;45.630;8.886;2023-11-18T14:41:59;14.60;40.50
34406;DHT22;20658;45.630;8.886;2023-11-18T14:44:32;14.50;41.20
34406;DHT22;20658;45.630;8.886;2023-11-18T14:47:07;14.70;40.90
34406;DHT22;20658;45.630;8.886;2023-11-18T14:49:41;14.30;40.90
34406;DHT22;20658;45.630;8.886;2023-11-18T14:52:19;14.60;41.20
34406;DHT22;20658;45.630;8.886;2023-11-18T14:54:49;14.30;40.90
34406;DHT22;20658;45.630;8.886;2023-11-18T14:57:18;14.30;40.90
34406;DHT22;20658;45.630;8.886;2023-11-18T14:59:52;14.40;41.00
34406;DHT22;20658;45.630;8.886;2023-11-18T15:02:25;14.30;41.10
34406;DHT22;20658;45.630;8.886;2023-11-18T15:04:53;14.60;41.10
34406;DHT22;20658;45.630;8.886;2023-11-18T15:07:27;14.20;41.50
34406;DHT22;20658;45.630;8.886;2023-11-18T15:10:01;14.20;41.70
34406;DHT22;20658;45.630;8.886;2023-11-18T15:12:35;14.40;41.90
34406;DHT22;20658;45.630;8.886;2023-11-18T15:15:08;14.10;41.80
34406;DHT22;20658;45.630;8.886;2023-11-18T15:17:49;14.10;42.10
34406;DHT22;20658;45.630;8.886;2023-11-18T15:20:22;14.00;42.00
34406;DHT22;20658;45.630;8.886;2023-11-18T15:22:56;14.00;42.40
34406;DHT22;20658;45.630;8.886;2023-11-18T15:25:25;13.90;42.80
34406;DHT22;20658;45.630;8.886;2023-11-18T15:27:59;13.80;42.80
34406;DHT22;20658;45.630;8.886;2023-11-18T15:30:32;13.90;43.00
34406;DHT22;20658;45.630;8.886;2023-11-18T15:33:06;13.70;43.30
34406;DHT22;20658;45.630;8.886;2023-11-18T15:35:40;14.00;43.90
34406;DHT22;20658;45.630;8.886;2023-11-18T15:38:14;13.50;44.20
34406;DHT22;20658;45.630;8.886;2023-11-18T15:40:50;13.40;44.50
34406;DHT22;20658;45.630;8.886;2023-11-18T15:43:25;13.30;45.10
34406;DHT22;20658;45.630;8.886;2023-11-18T15:46:00;13.50;45.70
34406;DHT22;20658;45.630;8.886;2023-11-18T15:48:33;13.30;46.00
34406;DHT22;20658;45.630;8.886;2023-11-18T15:51:07;13.00;46.20
34406;DHT22;20658;45.630;8.886;2023-11-18T15:53:43;12.90;46.60
34406;DHT22;20658;45.630;8.886;2023-11-18T15:56:18;12.90;47.30
34406;DHT22;20658;45.630;8.886;2023-11-18T15:58:51;12.70;48.40
34406;DHT22;20658;45.630;8.886;2023-11-18T16:01:25;12.60;48.40
34406;DHT22;20658;45.630;8.886;2023-11-18T16:03:58;12.50;48.60
34406;DHT22;20658;45.630;8.886;2023-11-18T16:06:31;12.40;48.80
34406;DHT22;20658;45.630;8.886;2023-11-18T16:09:05;12.50;49.50
34406;DHT22;20658;45.630;8.886;2023-11-18T16:11:39;12.40;49.40
34406;DHT22;20658;45.630;8.886;2023-11-18T16:14:13;12.30;49.40
34406;DHT22;20658;45.630;8.886;2023-11-18T16:16:47;12.20;49.50
34406;DHT22;20658;45.630;8.886;2023-11-18T16:19:22;12.10;49.80
34406;DHT22;20658;45.630;8.886;2023-11-18T16:21:55;12.00;50.50
34406;DHT22;20658;45.630;8.886;2023-11-18T16:24:28;11.90;51.00
34406;DHT22;20658;45.630;8.886;2023-11-18T16:27:03;11.80;51.50